createdAt,value
2019-01-26T00:00:08.400Z,1005.82
2019-01-26T00:01:08.407Z,1005.85
2019-01-26T00:02:08.389Z,1005.86
2019-01-26T00:03:08.376Z,1005.79
2019-01-26T00:04:08.356Z,1005.79
2019-01-26T00:05:08.404Z,1005.82
2019-01-26T00:06:08.382Z,1005.79
2019-01-26T00:07:08.343Z,1005.75
2019-01-26T00:08:08.314Z,1005.72
2019-01-26T00:09:08.306Z,1005.72
2019-01-26T00:10:08.322Z,1005.73
2019-01-26T00:11:08.377Z,1005.71
2019-01-26T00:12:08.278Z,1005.70
2019-01-26T00:13:08.293Z,1005.68
2019-01-26T00:14:08.255Z,1005.66
2019-01-26T00:15:08.246Z,1005.62
2019-01-26T00:16:08.253Z,1005.63
2019-01-26T00:17:08.251Z,1005.58
2019-01-26T00:18:08.214Z,1005.51
2019-01-26T00:19:08.198Z,1005.59
2019-01-26T00:20:08.195Z,1005.61
2019-01-26T00:21:08.221Z,1005.58
2019-01-26T00:22:08.178Z,1005.61
2019-01-26T00:23:08.171Z,1005.66
2019-01-26T00:24:08.174Z,1005.62
2019-01-26T00:25:08.152Z,1005.62
2019-01-26T00:26:08.167Z,1005.64
2019-01-26T00:27:08.127Z,1005.60
2019-01-26T00:28:08.108Z,1005.59
2019-01-26T00:29:08.105Z,1005.58
2019-01-26T00:30:08.203Z,1005.50
2019-01-26T00:31:08.097Z,1005.61
2019-01-26T00:32:08.107Z,1005.53
2019-01-26T00:33:08.049Z,1005.50
2019-01-26T00:34:08.040Z,1005.50
2019-01-26T00:35:08.074Z,1005.53
2019-01-26T00:36:08.043Z,1005.54
2019-01-26T00:37:08.033Z,1005.51
2019-01-26T00:38:08.052Z,1005.55
2019-01-26T00:39:08.039Z,1005.49
2019-01-26T00:40:08.009Z,1005.51
2019-01-26T00:41:08.010Z,1005.45
2019-01-26T00:42:07.962Z,1005.40
2019-01-26T00:43:07.965Z,1005.43
2019-01-26T00:44:07.979Z,1005.38
2019-01-26T00:45:07.925Z,1005.40
2019-01-26T00:46:07.983Z,1005.33
2019-01-26T00:47:07.903Z,1005.41
2019-01-26T00:48:07.923Z,1005.32
2019-01-26T00:49:07.889Z,1005.37
2019-01-26T00:50:07.875Z,1005.33
2019-01-26T00:51:07.960Z,1005.34
2019-01-26T00:52:07.874Z,1005.32
2019-01-26T07:20:43.495Z,1003.97
2019-01-26T07:21:43.496Z,1003.94
2019-01-26T07:22:43.461Z,1003.92
2019-01-26T07:23:43.453Z,1003.97
2019-01-26T07:24:43.443Z,1003.91
2019-01-26T07:25:43.429Z,1004.02
2019-01-26T07:26:43.469Z,1003.91
2019-01-26T07:27:43.415Z,1003.91
2019-01-26T07:28:43.399Z,1003.91
2019-01-26T07:29:43.392Z,1003.93
2019-01-26T07:30:43.379Z,1003.89
2019-01-26T07:31:43.385Z,1003.97
2019-01-26T07:32:43.359Z,1003.92
2019-01-26T07:33:43.345Z,1003.94
2019-01-26T07:34:43.352Z,1003.90
2019-01-26T07:35:43.324Z,1003.95
2019-01-26T07:36:43.344Z,1003.97
2019-01-26T07:37:43.310Z,1003.99
2019-01-26T07:38:43.295Z,1003.96
2019-01-26T07:39:43.294Z,1004.01
2019-01-26T07:40:43.276Z,1003.98
2019-01-26T07:41:43.295Z,1004.04
2019-01-26T07:42:43.267Z,1004.00
2019-01-26T07:43:43.243Z,1004.05
2019-01-26T07:44:43.257Z,1004.04
2019-01-26T07:45:43.230Z,1004.02
2019-01-26T07:46:43.228Z,1004.09
2019-01-26T07:47:43.212Z,1004.05
2019-01-26T07:48:44.544Z,1004.07
2019-01-26T07:49:43.184Z,1004.06
2019-01-26T07:50:43.169Z,1004.02
2019-01-26T07:51:43.177Z,1004.02
2019-01-26T07:52:43.151Z,1003.98
2019-01-26T07:53:43.151Z,1003.98
2019-01-26T07:54:43.135Z,1004.01
2019-01-26T07:55:43.121Z,1003.96
2019-01-26T07:56:43.146Z,1003.97
2019-01-26T07:57:43.099Z,1003.93
2019-01-26T07:58:43.092Z,1003.96
2019-01-26T07:59:43.076Z,1003.95
2019-01-26T08:00:43.117Z,1003.92
2019-01-26T08:01:43.061Z,1003.95
2019-01-26T08:02:43.062Z,1003.88
2019-01-26T08:03:43.035Z,1003.91
2019-01-26T08:04:43.029Z,1003.87
2019-01-26T08:05:43.027Z,1003.91
2019-01-26T08:06:43.016Z,1003.93
2019-01-26T08:07:43.021Z,1003.90
2019-01-26T08:08:42.986Z,1003.93
2019-01-26T08:09:42.974Z,1003.90
2019-01-26T08:10:42.966Z,1003.92
2019-01-26T08:11:42.965Z,1003.90
2019-01-26T08:12:42.974Z,1003.81
2019-01-26T08:13:42.937Z,1003.80
2019-01-26T08:14:42.923Z,1003.86
2019-01-26T08:15:42.912Z,1003.86
2019-01-26T08:16:42.903Z,1003.84
2019-01-26T08:17:50.965Z,1003.89
2019-01-26T08:18:42.884Z,1003.85
2019-01-26T08:19:42.872Z,1003.87
2019-01-26T08:20:42.862Z,1003.86
2019-01-26T08:21:42.852Z,1003.89
2019-01-26T08:22:42.840Z,1003.82
2019-01-26T08:23:42.849Z,1003.93
2019-01-26T08:24:42.827Z,1003.84
2019-01-26T08:25:42.823Z,1003.86
2019-01-26T08:26:42.805Z,1003.90
2019-01-26T08:27:42.789Z,1003.89
2019-01-26T08:28:42.806Z,1003.86
2019-01-26T08:29:42.772Z,1003.89
2019-01-26T08:30:42.788Z,1003.89
2019-01-26T08:31:42.748Z,1003.84
2019-01-26T08:32:42.741Z,1003.86
2019-01-26T08:33:42.765Z,1003.85
2019-01-26T08:34:42.728Z,1003.86
2019-01-26T08:35:42.706Z,1003.81
2019-01-26T08:36:42.701Z,1003.81
2019-01-26T08:37:42.689Z,1003.85
2019-01-26T08:38:42.696Z,1003.83
2019-01-26T08:39:42.672Z,1003.78
2019-01-26T08:40:42.678Z,1003.85
2019-01-26T08:41:42.641Z,1003.77
2019-01-26T08:42:42.647Z,1003.80
2019-01-26T08:43:42.647Z,1003.79
2019-01-26T08:44:42.611Z,1003.84
2019-01-26T08:45:42.608Z,1003.80
2019-01-26T08:46:42.590Z,1003.82
2019-01-26T08:47:42.578Z,1003.75
2019-01-26T08:48:42.582Z,1003.75
2019-01-26T08:49:42.557Z,1003.75
2019-01-26T08:50:42.547Z,1003.75
2019-01-26T08:51:42.542Z,1003.74
2019-01-26T08:52:42.524Z,1003.68
2019-01-26T08:53:42.552Z,1003.63
2019-01-26T08:54:42.511Z,1003.64
2019-01-26T08:55:42.503Z,1003.62
2019-01-26T08:56:42.483Z,1003.63
2019-01-26T08:57:42.479Z,1003.58
2019-01-26T08:58:42.460Z,1003.57
2019-01-26T08:59:42.466Z,1003.69
2019-01-26T09:00:42.448Z,1003.56
2019-01-26T09:01:42.429Z,1003.59
2019-01-26T09:02:42.418Z,1003.65
2019-01-26T09:03:42.427Z,1003.62
2019-01-26T09:04:42.430Z,1003.62
2019-01-26T09:05:42.391Z,1003.61
2019-01-26T09:06:42.377Z,1003.65
2019-01-26T09:07:42.375Z,1003.59
2019-01-26T09:08:42.353Z,1003.69
2019-01-26T09:09:42.362Z,1003.67
2019-01-26T09:10:42.342Z,1003.58
2019-01-26T09:11:42.322Z,1003.65
2019-01-26T09:12:42.312Z,1003.56
2019-01-26T09:13:42.315Z,1003.57
2019-01-26T09:14:42.313Z,1003.58
2019-01-26T09:15:42.282Z,1003.50
2019-01-26T09:16:42.279Z,1003.65
2019-01-26T09:17:42.313Z,1003.63
2019-01-26T09:18:42.249Z,1003.58
2019-01-26T09:19:42.288Z,1003.59
2019-01-26T09:20:42.231Z,1003.56
2019-01-26T09:21:42.224Z,1003.56
2019-01-26T09:22:42.207Z,1003.57
2019-01-26T09:23:42.198Z,1003.53
2019-01-26T09:24:42.190Z,1003.54
2019-01-26T09:25:42.192Z,1003.59
2019-01-26T09:26:42.194Z,1003.54
2019-01-26T09:27:42.161Z,1003.61
2019-01-26T09:28:42.142Z,1003.48
2019-01-26T09:29:42.648Z,1003.50
2019-01-26T09:30:42.136Z,1003.49
2019-01-26T09:31:42.118Z,1003.45
2019-01-26T09:32:42.097Z,1003.53
2019-01-26T09:33:42.090Z,1003.58
2019-01-26T09:34:42.076Z,1003.51
2019-01-26T09:35:42.098Z,1003.52
2019-01-26T09:36:42.055Z,1003.50
2019-01-26T09:37:42.049Z,1003.54
2019-01-26T09:38:42.035Z,1003.55
2019-01-26T09:39:42.034Z,1003.58
2019-01-26T09:40:42.036Z,1003.54
2019-01-26T09:41:42.003Z,1003.52
2019-01-26T09:42:41.997Z,1003.52
2019-01-26T09:43:41.987Z,1003.51
2019-01-26T09:44:41.973Z,1003.52
2019-01-26T09:45:41.985Z,1003.50
2019-01-26T09:46:41.947Z,1003.56
2019-01-26T09:47:41.937Z,1003.52
2019-01-26T09:48:46.190Z,1003.55
2019-01-26T09:49:41.936Z,1003.57
2019-01-26T09:50:41.927Z,1003.64
2019-01-26T09:51:41.954Z,1003.60
2019-01-26T09:52:41.887Z,1003.69
2019-01-26T09:53:41.876Z,1003.71
2019-01-26T09:54:41.877Z,1003.68
2019-01-26T09:55:41.870Z,1003.74
2019-01-26T09:56:41.850Z,1003.71
2019-01-26T09:57:41.835Z,1003.79
2019-01-26T09:58:41.850Z,1003.79
2019-01-26T09:59:41.813Z,1003.87
2019-01-26T10:00:41.834Z,1003.84
2019-01-26T10:01:41.795Z,1003.84
2019-01-26T10:02:41.818Z,1003.75
2019-01-26T10:03:41.789Z,1003.83
2019-01-26T10:04:41.768Z,1003.78
2019-01-26T10:05:41.778Z,1003.76
2019-01-26T10:06:41.928Z,1003.76
2019-01-26T10:07:41.729Z,1003.82
2019-01-26T10:08:41.727Z,1003.73
2019-01-26T10:09:41.704Z,1003.67
2019-01-26T10:10:41.709Z,1003.69
2019-01-26T10:11:41.686Z,1003.76
2019-01-26T10:12:41.691Z,1003.67
2019-01-26T10:13:41.659Z,1003.76
2019-01-26T10:14:41.653Z,1003.72
2019-01-26T10:15:41.689Z,1003.71
2019-01-26T10:16:41.662Z,1003.66
2019-01-26T10:17:45.736Z,1003.71
2019-01-26T10:18:41.610Z,1003.69
2019-01-26T10:19:41.604Z,1003.67
2019-01-26T10:20:41.590Z,1003.70
2019-01-26T10:21:41.595Z,1003.69
2019-01-26T10:22:41.563Z,1003.66
2019-01-26T10:23:41.560Z,1003.68
2019-01-26T10:24:41.545Z,1003.70
2019-01-26T10:25:48.415Z,1003.67
2019-01-26T10:26:42.570Z,1003.73
2019-01-26T10:27:41.511Z,1003.70
2019-01-26T10:28:41.542Z,1003.68
2019-01-26T10:29:41.491Z,1003.63
2019-01-26T10:30:41.481Z,1003.65
2019-01-26T10:31:41.495Z,1003.73
2019-01-26T10:32:41.461Z,1003.62
2019-01-26T10:33:41.447Z,1003.62
2019-01-26T10:34:41.451Z,1003.64
2019-01-26T10:35:41.437Z,1003.65
2019-01-26T10:36:41.441Z,1003.59
2019-01-26T10:37:41.403Z,1003.63
2019-01-26T10:38:41.406Z,1003.58
2019-01-26T10:39:41.412Z,1003.57
2019-01-26T10:40:41.371Z,1003.58
2019-01-26T10:41:41.375Z,1003.49
2019-01-26T10:42:41.349Z,1003.48
2019-01-26T10:43:41.339Z,1003.50
2019-01-26T10:44:41.360Z,1003.45
2019-01-26T10:45:41.319Z,1003.42
2019-01-26T10:46:41.326Z,1003.40
2019-01-26T10:47:41.294Z,1003.45
2019-01-26T10:48:41.290Z,1003.44
2019-01-26T10:49:41.284Z,1003.46
2019-01-26T10:50:41.265Z,1003.26
2019-01-26T10:51:41.274Z,1003.32
2019-01-26T10:52:41.241Z,1003.31
2019-01-26T10:53:41.232Z,1003.34
2019-01-26T10:54:41.225Z,1003.27
2019-01-26T10:55:41.223Z,1003.27
2019-01-26T10:56:41.233Z,1003.29
2019-01-26T10:57:41.187Z,1003.30
2019-01-26T10:58:41.190Z,1003.24
2019-01-26T10:59:41.176Z,1003.26
2019-01-26T11:00:41.169Z,1003.25
2019-01-26T11:01:41.150Z,1003.21
2019-01-26T11:02:41.149Z,1003.24
2019-01-26T11:03:41.126Z,1003.25
2019-01-26T11:04:41.118Z,1003.22
2019-01-26T11:05:41.106Z,1003.21
2019-01-26T11:06:41.096Z,1003.21
2019-01-26T11:07:41.152Z,1003.24
2019-01-26T11:08:41.073Z,1003.24
2019-01-26T11:09:41.062Z,1003.12
2019-01-26T11:10:41.046Z,1003.25
2019-01-26T11:11:41.036Z,1003.14
2019-01-26T11:12:41.056Z,1003.12
2019-01-26T11:13:41.033Z,1003.20
2019-01-26T11:14:41.006Z,1003.12
2019-01-26T11:15:41.007Z,1003.19
2019-01-26T11:16:40.983Z,1003.05
2019-01-26T11:17:40.994Z,1003.18
2019-01-26T11:18:40.963Z,1003.18
2019-01-26T11:19:40.949Z,1003.16
2019-01-26T11:20:40.938Z,1003.13
2019-01-26T11:21:40.936Z,1003.16
2019-01-26T11:22:40.934Z,1003.19
2019-01-26T11:23:40.995Z,1003.13
2019-01-26T11:24:40.898Z,1003.12
2019-01-26T11:25:40.884Z,1003.11
2019-01-26T11:26:40.885Z,1003.06
2019-01-26T11:27:40.879Z,1003.12
2019-01-26T11:28:40.852Z,1003.09
2019-01-26T11:29:40.842Z,1003.08
2019-01-26T11:30:40.840Z,1003.11
2019-01-26T11:31:40.825Z,1003.06
2019-01-26T11:32:40.828Z,1003.18
2019-01-26T11:33:40.799Z,1003.03
2019-01-26T11:34:40.787Z,1003.05
2019-01-26T11:35:40.783Z,1002.97
2019-01-26T11:36:40.767Z,1003.01
2019-01-26T11:37:40.792Z,1002.93
2019-01-26T11:38:40.745Z,1002.97
2019-01-26T11:39:40.736Z,1002.88
2019-01-26T11:40:40.745Z,1002.85
2019-01-26T11:41:40.716Z,1002.87
2019-01-26T11:42:40.840Z,1002.93
2019-01-26T11:43:40.688Z,1002.86
2019-01-26T11:44:40.689Z,1002.86
2019-01-26T11:45:40.672Z,1002.78
2019-01-26T11:46:40.656Z,1002.77
2019-01-26T11:47:40.671Z,1002.71
2019-01-26T11:48:40.636Z,1002.80
2019-01-26T11:49:40.624Z,1002.73
2019-01-26T11:50:40.617Z,1002.75
2019-01-26T11:51:40.612Z,1002.71
2019-01-26T11:52:40.616Z,1002.74
2019-01-26T11:53:40.581Z,1002.63
2019-01-26T11:54:40.587Z,1002.57
2019-01-26T11:55:40.563Z,1002.61
2019-01-26T11:56:40.547Z,1002.56
2019-01-26T11:57:40.563Z,1002.57
2019-01-26T11:58:40.533Z,1002.58
2019-01-26T11:59:40.516Z,1002.59
2019-01-26T12:00:40.505Z,1002.60
2019-01-26T12:01:40.495Z,1002.52
2019-01-26T12:02:40.483Z,1002.53
2019-01-26T12:03:40.494Z,1002.43
2019-01-26T12:04:40.468Z,1002.53
2019-01-26T12:05:40.454Z,1002.47
2019-01-26T12:06:40.440Z,1002.45
2019-01-26T12:07:40.441Z,1002.46
2019-01-26T12:08:40.439Z,1002.44
2019-01-26T12:09:40.429Z,1002.43
2019-01-26T12:10:40.407Z,1002.42
2019-01-26T12:11:40.386Z,1002.39
2019-01-26T12:12:40.377Z,1002.41
2019-01-26T12:13:40.383Z,1002.34
2019-01-26T12:14:40.357Z,1002.27
2019-01-26T12:15:40.351Z,1002.31
2019-01-26T12:16:40.343Z,1002.29
2019-01-26T12:17:40.337Z,1002.34
2019-01-26T12:18:40.331Z,1002.28
2019-01-26T12:19:40.301Z,1002.19
2019-01-26T12:20:40.294Z,1002.23
2019-01-26T12:21:40.300Z,1002.09
2019-01-26T12:22:40.264Z,1002.14
2019-01-26T12:23:40.274Z,1002.10
2019-01-26T12:24:40.245Z,1002.13
2019-01-26T12:25:40.235Z,1002.19
2019-01-26T12:26:40.225Z,1002.15
2019-01-26T12:27:40.227Z,1002.13
2019-01-26T12:28:40.234Z,1002.16
2019-01-26T12:29:40.191Z,1002.11
2019-01-26T12:30:40.177Z,1002.13
2019-01-26T12:31:40.176Z,1002.16
2019-01-26T12:32:40.158Z,1002.17
2019-01-26T12:33:40.142Z,1002.12
2019-01-26T12:34:40.146Z,1002.10
2019-01-26T12:35:40.123Z,1002.05
2019-01-26T12:36:40.118Z,1002.03
2019-01-26T12:37:40.100Z,1002.06
2019-01-26T12:38:40.091Z,1002.03
2019-01-26T12:39:40.091Z,1002.10
2019-01-26T12:40:40.068Z,1002.00
2019-01-26T12:41:40.052Z,1002.01
2019-01-26T12:42:40.042Z,1001.93
2019-01-26T12:43:40.039Z,1001.95
2019-01-26T12:44:40.061Z,1001.93
2019-01-26T12:45:40.011Z,1001.90
2019-01-26T12:46:40.102Z,1001.98
2019-01-26T12:47:40.001Z,1001.86
2019-01-26T12:48:39.975Z,1001.86
2019-01-26T12:49:39.980Z,1001.90
2019-01-26T12:50:39.956Z,1001.93
2019-01-26T12:51:39.943Z,1001.89
2019-01-26T12:52:39.932Z,1001.82
2019-01-26T12:53:39.927Z,1001.91
2019-01-26T12:54:39.955Z,1001.91
2019-01-26T12:55:39.900Z,1001.94
2019-01-26T12:56:39.889Z,1001.94
2019-01-26T12:57:39.877Z,1001.91
2019-01-26T12:58:39.874Z,1001.91
2019-01-26T12:59:40.167Z,1001.92
2019-01-26T13:00:39.853Z,1001.90
2019-01-26T13:01:39.833Z,1001.88
2019-01-26T13:02:39.888Z,1001.85
2019-01-26T13:03:39.813Z,1001.75
2019-01-26T13:04:39.832Z,1001.81
2019-01-26T13:05:39.833Z,1001.80
2019-01-26T13:06:39.782Z,1001.79
2019-01-26T13:07:39.769Z,1001.80
2019-01-26T13:08:39.784Z,1001.65
2019-01-26T13:09:39.767Z,1001.69
2019-01-26T13:10:39.749Z,1001.66
2019-01-26T13:11:39.730Z,1001.66
2019-01-26T13:12:39.720Z,1001.64
2019-01-26T13:13:39.704Z,1001.65
2019-01-26T13:14:39.712Z,1001.62
2019-01-26T13:15:39.685Z,1001.54
2019-01-26T13:16:39.753Z,1001.50
2019-01-26T13:17:39.692Z,1001.55
2019-01-26T13:18:39.651Z,1001.54
2019-01-26T13:19:39.706Z,1001.52
2019-01-26T13:20:39.634Z,1001.53
2019-01-26T13:21:39.634Z,1001.51
2019-01-26T13:22:39.614Z,1001.48
2019-01-26T13:23:39.601Z,1001.48
2019-01-26T13:24:39.585Z,1001.49
2019-01-26T13:25:39.609Z,1001.50
2019-01-26T13:26:39.565Z,1001.46
2019-01-26T13:27:39.558Z,1001.42
2019-01-26T13:28:39.541Z,1001.44
2019-01-26T13:29:39.590Z,1001.42
2019-01-26T13:30:39.538Z,1001.35
2019-01-26T13:31:39.513Z,1001.33
2019-01-26T13:32:39.503Z,1001.34
2019-01-26T13:33:39.498Z,1001.38
2019-01-26T13:34:39.485Z,1001.25
2019-01-26T13:35:39.494Z,1001.29
2019-01-26T13:36:39.459Z,1001.20
2019-01-26T13:37:39.448Z,1001.21
2019-01-26T13:38:39.542Z,1001.15
2019-01-26T13:39:39.425Z,1001.13
2019-01-26T13:40:39.544Z,1001.10
2019-01-26T13:41:39.402Z,1001.09
2019-01-26T13:42:39.390Z,1001.11
2019-01-26T13:43:39.381Z,1001.08
2019-01-26T13:44:39.376Z,1001.03
2019-01-26T13:45:39.358Z,1001.05
2019-01-26T13:46:39.389Z,1001.03
2019-01-26T13:47:39.337Z,1001.05
2019-01-26T13:48:39.330Z,1001.02
2019-01-26T13:49:44.037Z,1001.00
2019-01-26T13:50:39.312Z,1000.98
2019-01-26T13:51:39.316Z,1001.01
2019-01-26T13:52:39.284Z,1000.98
2019-01-26T13:53:39.274Z,1000.95
2019-01-26T13:54:39.264Z,1000.95
2019-01-26T13:55:39.251Z,1000.91
2019-01-26T13:56:39.257Z,1000.85
2019-01-26T13:57:39.228Z,1000.87
2019-01-26T13:58:39.220Z,1000.88
2019-01-26T13:59:39.242Z,1000.88
2019-01-26T14:00:39.198Z,1000.89
2019-01-26T14:01:39.200Z,1000.89
2019-01-26T14:02:39.181Z,1000.89
2019-01-26T14:03:39.175Z,1000.84
2019-01-26T14:04:39.155Z,1000.90
2019-01-26T14:05:39.143Z,1000.80
2019-01-26T14:06:39.154Z,1000.80
2019-01-26T14:07:39.133Z,1000.79
2019-01-26T14:08:39.119Z,1000.79
2019-01-26T14:09:39.109Z,1000.83
2019-01-26T14:10:39.096Z,1000.78
2019-01-26T14:11:39.102Z,1000.80
2019-01-26T14:12:39.066Z,1000.83
2019-01-26T14:13:39.059Z,1000.80
2019-01-26T14:14:39.051Z,1000.77
2019-01-26T14:15:39.037Z,1000.75
2019-01-26T14:16:39.043Z,1000.71
2019-01-26T14:17:39.022Z,1000.73
2019-01-26T14:18:39.007Z,1000.73
2019-01-26T14:19:38.998Z,1000.72
2019-01-26T14:20:39.002Z,1000.73
2019-01-26T14:21:39.025Z,1000.68
2019-01-26T14:22:38.961Z,1000.71
2019-01-26T14:23:38.947Z,1000.72
2019-01-26T14:24:38.935Z,1000.69
2019-01-26T14:25:38.935Z,1000.66
2019-01-26T14:26:38.919Z,1000.65
2019-01-26T14:27:38.939Z,1000.63
2019-01-26T14:28:38.892Z,1000.66
2019-01-26T14:29:38.888Z,1000.65
2019-01-26T14:30:38.870Z,1000.56
2019-01-26T14:31:38.864Z,1000.56
2019-01-26T14:32:38.883Z,1000.54
2019-01-26T14:33:38.837Z,1000.52
2019-01-26T14:34:38.829Z,1000.57
2019-01-26T14:35:38.815Z,1000.59
2019-01-26T14:36:38.817Z,1000.48
2019-01-26T14:37:38.876Z,1000.48
2019-01-26T14:38:38.789Z,1000.47
2019-01-26T14:39:39.908Z,1000.43
2019-01-26T14:40:38.770Z,1000.44
2019-01-26T14:41:38.749Z,1000.40
2019-01-26T14:42:38.759Z,1000.41
2019-01-26T14:43:38.730Z,1000.39
2019-01-26T14:44:38.726Z,1000.35
2019-01-26T14:45:38.709Z,1000.34
2019-01-26T14:46:38.698Z,1000.29
2019-01-26T14:47:38.715Z,1000.40
2019-01-26T14:48:38.677Z,1000.29
2019-01-26T14:49:38.730Z,1000.36
2019-01-26T14:50:38.656Z,1000.34
2019-01-26T14:51:38.662Z,1000.27
2019-01-26T14:52:38.630Z,1000.31
2019-01-26T14:53:38.642Z,1000.29
2019-01-26T14:54:38.612Z,1000.22
2019-01-26T14:55:38.611Z,1000.16
2019-01-26T14:56:38.603Z,1000.20
2019-01-26T14:57:38.579Z,1000.20
2019-01-26T14:58:38.590Z,1000.13
2019-01-26T14:59:38.554Z,1000.20
2019-01-26T15:00:38.546Z,1000.19
2019-01-26T15:01:38.535Z,1000.12
2019-01-26T15:02:38.542Z,1000.15
2019-01-26T15:03:38.529Z,1000.09
2019-01-26T15:04:38.506Z,1000.04
2019-01-26T15:05:38.491Z,1000.06
2019-01-26T15:06:38.479Z,1000.04
2019-01-26T15:07:38.470Z,1000.06
2019-01-26T15:08:38.589Z,1000.04
2019-01-26T15:09:38.455Z,1000.04
2019-01-26T15:10:38.435Z,1000.03
2019-01-26T15:11:38.426Z,999.95
2019-01-26T15:12:38.415Z,1000.01
2019-01-26T15:13:39.452Z,1000.00
2019-01-26T15:14:38.421Z,999.92
2019-01-26T15:15:38.388Z,999.91
2019-01-26T15:16:38.371Z,999.88
2019-01-26T15:17:38.368Z,999.95
2019-01-26T15:18:38.349Z,999.93
2019-01-26T15:19:38.358Z,999.93
2019-01-26T15:20:38.348Z,999.90
2019-01-26T15:21:38.335Z,999.86
2019-01-26T15:22:38.307Z,999.88
2019-01-26T15:23:38.304Z,999.80
2019-01-26T15:24:38.308Z,999.79
2019-01-26T15:25:38.274Z,999.72
2019-01-26T15:26:38.288Z,999.72
2019-01-26T15:27:38.259Z,999.73
2019-01-26T15:28:42.904Z,999.78
2019-01-26T15:29:41.925Z,999.78
2019-01-26T15:30:39.067Z,999.70
2019-01-26T15:31:38.211Z,999.78
2019-01-26T15:32:38.276Z,999.76
2019-01-26T15:33:38.223Z,999.73
2019-01-26T15:34:38.191Z,999.73
2019-01-26T15:35:38.165Z,999.72
2019-01-26T15:36:38.157Z,999.68
2019-01-26T15:37:38.148Z,999.59
2019-01-26T15:38:38.131Z,999.57
2019-01-26T15:39:38.258Z,999.59
2019-01-26T15:40:38.118Z,999.56
2019-01-26T15:41:38.102Z,999.57
2019-01-26T15:42:38.089Z,999.57
2019-01-26T15:43:38.091Z,999.56
2019-01-26T15:44:38.075Z,999.56
2019-01-26T15:45:38.075Z,999.54
2019-01-26T15:46:38.058Z,999.46
2019-01-26T15:47:38.039Z,999.48
2019-01-26T15:48:38.024Z,999.40
2019-01-26T15:49:38.025Z,999.45
2019-01-26T15:50:38.027Z,999.44
2019-01-26T15:51:37.992Z,999.44
2019-01-26T15:52:37.992Z,999.41
2019-01-26T15:53:37.970Z,999.36
2019-01-26T15:54:37.960Z,999.34
2019-01-26T15:55:37.977Z,999.34
2019-01-26T15:56:38.150Z,999.31
2019-01-26T15:57:37.927Z,999.35
2019-01-26T15:58:37.918Z,999.33
2019-01-26T15:59:37.904Z,999.28
2019-01-26T16:00:38.197Z,999.35
2019-01-26T16:01:37.894Z,999.29
2019-01-26T16:02:37.875Z,999.28
2019-01-26T16:03:37.864Z,999.30
2019-01-26T16:04:37.850Z,999.28
2019-01-26T16:05:37.854Z,999.29
2019-01-26T16:06:37.849Z,999.28
2019-01-26T16:07:37.833Z,999.28
2019-01-26T16:08:37.806Z,999.26
2019-01-26T16:09:37.800Z,999.27
2019-01-26T16:10:37.794Z,999.29
2019-01-26T16:11:37.791Z,999.24
2019-01-26T16:12:37.771Z,999.22
2019-01-26T16:13:37.774Z,999.30
2019-01-26T16:14:37.745Z,999.32
2019-01-26T16:15:37.732Z,999.25
2019-01-26T16:16:37.743Z,999.28
2019-01-26T16:17:37.713Z,999.25
2019-01-26T16:18:37.715Z,999.31
2019-01-26T16:19:37.704Z,999.26
2019-01-26T16:20:37.678Z,999.19
2019-01-26T16:21:37.684Z,999.16
2019-01-26T16:22:37.657Z,999.18
2019-01-26T16:23:37.645Z,999.22
2019-01-26T16:24:37.649Z,999.13
2019-01-26T16:25:37.628Z,999.08
2019-01-26T16:26:37.645Z,999.05
2019-01-26T16:27:37.601Z,999.00
2019-01-26T16:28:37.593Z,999.03
2019-01-26T16:29:37.586Z,999.00
2019-01-26T16:30:37.570Z,998.99
2019-01-26T16:31:37.576Z,998.97
2019-01-26T16:32:37.548Z,998.91
2019-01-26T16:33:37.537Z,998.89
2019-01-26T16:34:37.535Z,998.96
2019-01-26T16:35:37.526Z,998.88
2019-01-26T16:36:37.533Z,998.90
2019-01-26T16:37:37.505Z,998.86
2019-01-26T16:38:37.484Z,998.82
2019-01-26T16:39:37.473Z,998.80
2019-01-26T16:40:37.475Z,998.77
2019-01-26T16:41:37.482Z,998.74
2019-01-26T16:42:37.442Z,998.70
2019-01-26T16:43:37.441Z,998.72
2019-01-26T16:44:37.420Z,998.68
2019-01-26T16:45:37.811Z,998.80
2019-01-26T16:46:37.464Z,998.80
2019-01-26T16:47:37.388Z,998.70
2019-01-26T16:48:37.379Z,998.73
2019-01-26T16:49:37.386Z,998.68
2019-01-26T16:50:37.356Z,998.67
2019-01-26T16:51:37.389Z,998.64
2019-01-26T16:52:37.354Z,998.65
2019-01-26T16:53:37.327Z,998.68
2019-01-26T16:54:37.332Z,998.61
2019-01-26T16:55:37.316Z,998.59
2019-01-26T16:56:37.293Z,998.59
2019-01-26T16:57:37.300Z,998.59
2019-01-26T16:58:37.337Z,998.57
2019-01-26T16:59:37.266Z,998.59
2019-01-26T17:00:37.265Z,998.64
2019-01-26T17:01:37.263Z,998.49
2019-01-26T17:02:37.255Z,998.53
2019-01-26T17:03:37.221Z,998.48
2019-01-26T17:04:37.210Z,998.44
2019-01-26T17:05:37.196Z,998.45
2019-01-26T17:06:37.195Z,998.47
2019-01-26T17:07:37.197Z,998.41
2019-01-26T17:08:37.168Z,998.39
2019-01-26T17:09:37.159Z,998.32
2019-01-26T17:10:37.146Z,998.38
2019-01-26T17:11:37.137Z,998.35
2019-01-26T17:12:37.144Z,998.34
2019-01-26T17:13:37.118Z,998.27
2019-01-26T17:14:37.103Z,998.29
2019-01-26T17:15:37.108Z,998.26
2019-01-26T17:16:37.084Z,998.23
2019-01-26T17:17:37.111Z,998.27
2019-01-26T17:18:37.251Z,998.20
2019-01-26T17:19:37.063Z,998.18
2019-01-26T17:20:37.043Z,998.18
2019-01-26T17:21:37.040Z,998.10
2019-01-26T17:22:37.018Z,998.13
2019-01-26T17:23:37.027Z,998.23
2019-01-26T17:24:36.998Z,998.14
2019-01-26T17:25:37.004Z,998.10
2019-01-26T17:26:36.986Z,998.05
2019-01-26T17:27:36.968Z,998.05
2019-01-26T17:28:36.990Z,998.11
2019-01-26T17:29:36.947Z,998.06
2019-01-26T17:30:36.935Z,997.96
2019-01-26T17:31:36.940Z,998.03
2019-01-26T17:32:36.920Z,997.94
2019-01-26T17:33:36.948Z,997.96
2019-01-26T17:34:36.894Z,997.88
2019-01-26T17:35:36.884Z,997.97
2019-01-26T17:36:36.892Z,997.89
2019-01-26T17:37:36.866Z,997.85
2019-01-26T17:38:36.875Z,997.79
2019-01-26T17:39:36.844Z,997.82
2019-01-26T17:40:36.833Z,997.80
2019-01-26T17:41:36.828Z,997.75
2019-01-26T17:42:36.811Z,997.73
2019-01-26T17:43:36.831Z,997.72
2019-01-26T17:44:36.799Z,997.66
2019-01-26T17:45:36.779Z,997.67
2019-01-26T17:46:36.775Z,997.66
2019-01-26T17:47:36.759Z,997.67
2019-01-26T17:48:36.817Z,997.62
2019-01-26T17:49:36.739Z,997.57
2019-01-26T17:50:42.175Z,997.53
2019-01-26T17:51:37.725Z,997.54
2019-01-26T17:52:40.496Z,997.57
2019-01-26T17:53:36.698Z,997.56
2019-01-26T17:54:36.702Z,997.56
2019-01-26T17:55:36.688Z,997.54
2019-01-26T17:56:36.667Z,997.59
2019-01-26T17:57:36.656Z,997.46
2019-01-26T17:58:36.648Z,997.53
2019-01-26T17:59:36.663Z,997.48
2019-01-26T18:00:36.629Z,997.43
2019-01-26T18:01:36.619Z,997.46
2019-01-26T18:02:36.605Z,997.42
2019-01-26T18:03:37.075Z,997.40
2019-01-26T18:04:36.600Z,997.35
2019-01-26T18:05:36.581Z,997.38
2019-01-26T18:06:36.563Z,997.31
2019-01-26T18:07:36.557Z,997.29
2019-01-26T18:08:36.543Z,997.27
2019-01-26T18:09:36.565Z,997.26
2019-01-26T18:10:36.524Z,997.33
2019-01-26T18:11:36.513Z,997.31
2019-01-26T18:12:36.509Z,997.23
2019-01-26T18:13:36.498Z,997.22
2019-01-26T18:14:36.503Z,997.15
2019-01-26T18:15:36.476Z,997.20
2019-01-26T18:16:36.465Z,997.13
2019-01-26T18:17:36.452Z,997.15
2019-01-26T18:18:36.445Z,997.09
2019-01-26T18:19:36.440Z,997.13
2019-01-26T18:20:36.443Z,997.03
2019-01-26T18:21:36.412Z,997.08
2019-01-26T18:22:36.398Z,997.04
2019-01-26T18:23:36.390Z,997.06
2019-01-26T18:24:36.379Z,997.02
2019-01-26T18:25:36.390Z,996.96
2019-01-26T18:26:36.365Z,996.88
2019-01-26T18:27:36.346Z,996.91
2019-01-26T18:28:36.337Z,996.87
2019-01-26T18:29:36.328Z,996.87
2019-01-26T18:30:36.349Z,996.91
2019-01-26T18:31:36.306Z,996.85
2019-01-26T18:32:36.302Z,996.84
2019-01-26T18:33:36.293Z,996.79
2019-01-26T18:34:36.274Z,996.81
2019-01-26T18:35:36.298Z,996.88
2019-01-26T18:36:36.256Z,996.83
2019-01-26T18:37:36.245Z,996.77
2019-01-26T18:38:36.249Z,996.80
2019-01-26T18:39:36.228Z,996.75